Sisseton, SD (57262)

8:07 PM CST on February 22, 2017 (GMT -0600)
W Browns Valley Twp | | Change Station

Elev 1089 ft 45.56 °N, 96.74 °W | Updated 1 second ago

Overcast
Overcast
32.4 °F
Feels Like 26 °F
N
7.2
Wind Variable Wind from West
Gusts 9.8 mph

Today
High -- | Low -- °F
--% Chance of Precip.
Yesterday
High -- | Low -- °F
Precip. -- in
Pressure 29.87 in
Visibility 10.0 miles
Clouds Overcast 1200 ft
Windchill 26 °F
Dew Point 5 °F
Humidity 31%
Rainfall 0.00 in
Snow Depth Not available.
7:18 AM 6:05 PM
Waning Crescent, 13% visible
METAR KETH 230156Z AUTO 33014G21KT 10SM OVC012 00/M02 A2987 RMK AO2
Pressure 29.87 in
Visibility 10.0 miles
Clouds Overcast 1200 ft
Windchill 26 °F
Dew Point 5 °F
Humidity 31%
Rainfall 0.00 in
Snow Depth Not available.
7:18 AM 6:05 PM
Waning Crescent, 13% visible
METAR KETH 230156Z AUTO 33014G21KT 10SM OVC012 00/M02 A2987 RMK AO2

Get Your Daily Forecast Email!

Thanks for signing up!

Be on the lookout for a verification email in your inbox.

You'll start receiving the daily forecast at 8 AM.

×

10-Day Weather Forecast

Almanac

Astronomy

Feb. 22, 2017 Rise Set
Actual Time
Civil Twilight
Nautical Twilight
Astronomical Twilight
Moon
Length of Visible Light
Length of Day
Tomorrow will be .
, % of the Moon is Illuminated

Today's Extremes

State Highs State Lows

Community

WunderPhotos

Upload Photos

1,962,540 photos uploaded!

WunderBlog® & News

Nearby

Air Quality

  Air Quality AQ Index Pollutant
Not available.

Snow Depth

Station Depth Elevation

Earthquake Activity

City Distance Mag. Time & Date
Minimum magnitude displayed is 2.5.

Coastal Water Temperatures

Place Temperature

Stations

Nearby Weather Stations

Station Location Temp. Windchill Dew Point Humidity Wind Precip. Elev Updated Type
                   

Watches & Warnings

There are currently no watches in effect.